Terminal Aerodrome Forecast
Issued by NWS Newport/Morehead City, NC

Home | Current Version | Previous Version | Graphics & Text | Print | Product List | Glossary On
Versions: 1 2 3 4 5 6 7 8 9 10 11 12 13 14 15 16 17 18 19 20 21
000
FTUS42 KMHX 210341 AAA
TAFEWN
TAF AMD
KEWN 210341Z 2104/2124 00000KT 5SM BR SCT250
      TEMPO 2104/2108 1SM BR
     FM210800 00000KT 2SM BR SCT005
     FM211200 10005KT P6SM SCT050=

USA.gov is the U.S. government's official web portal to all federal, state and local government web resources and services.